Time;durP1;ratioP1;P1;durP2;ratioP2;P2;SDS_P1;SDS_P2;PMS_P1;PMS_P2;Temp;Humidity;BMP_temperature;BMP_pressure;BME280_temperature;BME280_humidity;BME280_pressure;Samples;Min_cycle;Max_cycle;Signal;HPM_P1;HPM_P2
2023/12/24 00:00:36;;;;;;;;;1.00;1.00;;;;;11.95;68.63;101122.09;5000834;28;45675;-87
2023/12/24 00:03:01;;;;;;;;;0.33;0.33;;;;;11.92;69.22;101120.47;4997501;28;45302;-85
2023/12/24 00:05:26;;;;;;;;;1.00;1.00;;;;;11.91;69.18;101125.88;4995399;28;45869;-87
2023/12/24 00:07:52;;;;;;;;;1.33;1.00;;;;;11.88;69.35;101121.56;4996234;28;45843;-88
2023/12/24 00:10:17;;;;;;;;;0.33;0.33;;;;;11.81;69.47;101123.69;4996095;27;45566;-86
2023/12/24 00:12:42;;;;;;;;;1.00;1.00;;;;;11.86;69.30;101128.78;4995571;28;63487;-83
2023/12/24 00:15:08;;;;;;;;;3.00;1.33;;;;;11.87;69.52;101137.66;4995752;28;45348;-85
2023/12/24 00:17:33;;;;;;;;;1.00;1.00;;;;;11.78;69.24;101125.63;4997002;28;45377;-84
2023/12/24 00:19:59;;;;;;;;;0.33;0.33;;;;;11.82;69.18;101133.41;4996703;28;45356;-85
2023/12/24 00:22:28;;;;;;;;;0.67;0.67;;;;;11.80;69.24;101129.09;4998816;27;45990;-87
2023/12/24 00:24:53;;;;;;;;;2.00;2.00;;;;;11.82;69.36;101138.72;4996753;27;45557;-86
2023/12/24 00:27:18;;;;;;;;;1.00;1.00;;;;;11.84;69.75;101135.13;4994900;28;45240;-86
2023/12/24 00:29:43;;;;;;;;;0.67;0.67;;;;;11.86;69.64;101138.59;4994499;28;46427;-88
2023/12/24 00:32:09;;;;;;;;;1.00;1.00;;;;;11.77;69.74;101121.25;4994022;28;68190;-87
2023/12/24 00:34:34;;;;;;;;;0.33;0.33;;;;;11.75;69.52;101126.66;4994678;28;45206;-87
2023/12/24 00:36:59;;;;;;;;;1.33;0.67;;;;;11.79;69.42;101128.25;4994570;28;45328;-86
2023/12/24 00:39:25;;;;;;;;;2.67;1.67;;;;;11.73;69.18;101115.22;4995336;28;45405;-88
2023/12/24 00:41:50;;;;;;;;;0.00;0.00;;;;;11.85;69.12;101131.50;4993630;28;67642;-87
2023/12/24 00:44:15;;;;;;;;;1.00;1.00;;;;;11.78;69.38;101113.16;4992664;28;59383;-86
2023/12/24 00:46:41;;;;;;;;;0.00;0.00;;;;;11.84;69.05;101129.78;4994521;27;45452;-84
2023/12/24 00:49:06;;;;;;;;;1.00;1.00;;;;;11.84;69.09;101114.66;4995003;28;45354;-86
2023/12/24 00:51:31;;;;;;;;;1.00;1.00;;;;;11.78;69.03;101094.50;4994190;28;45413;-88
2023/12/24 00:53:57;;;;;;;;;1.00;1.00;;;;;11.75;68.83;101083.16;4994713;28;45313;-89
2023/12/24 00:56:22;;;;;;;;;2.00;0.33;;;;;11.87;69.10;101103.88;4995444;27;45456;-90
2023/12/24 00:58:47;;;;;;;;;2.00;0.00;;;;;11.86;69.33;101112.81;4995816;28;45350;-82
2023/12/24 01:01:12;;;;;;;;;1.00;1.00;;;;;11.89;69.18;101101.13;4994556;28;62295;-82
2023/12/24 01:03:38;;;;;;;;;0.67;0.67;;;;;11.88;69.28;101088.72;4994606;28;53815;-84
2023/12/24 01:06:04;;;;;;;;;1.00;1.00;;;;;11.89;69.72;101111.78;4995322;27;46338;-83
2023/12/24 01:08:30;;;;;;;;;1.00;1.00;;;;;11.81;69.53;101093.50;4997713;27;45451;-83
2023/12/24 01:10:56;;;;;;;;;1.67;1.33;;;;;11.82;69.72;101108.56;4995165;27;46455;-85
2023/12/24 01:13:21;;;;;;;;;2.00;1.00;;;;;11.87;69.80;101097.66;4995287;28;49072;-89
2023/12/24 01:15:46;;;;;;;;;1.00;1.00;;;;;11.77;70.08;101082.13;4994525;28;45259;-86
2023/12/24 01:18:13;;;;;;;;;3.33;2.00;;;;;11.77;69.84;101081.28;4995118;27;45703;-88
2023/12/24 01:20:38;;;;;;;;;1.00;1.00;;;;;11.85;69.81;101097.75;4994589;28;45364;-85
2023/12/24 01:23:04;;;;;;;;;1.00;1.00;;;;;11.84;69.51;101095.16;4992355;28;45443;-84
2023/12/24 01:25:29;;;;;;;;;1.67;1.00;;;;;11.82;69.70;101085.44;4992361;28;59899;-83
2023/12/24 01:27:54;;;;;;;;;1.00;1.00;;;;;11.79;69.53;101093.59;4994233;28;45191;-85
2023/12/24 01:30:20;;;;;;;;;1.00;1.00;;;;;11.78;69.44;101099.84;4993558;28;60746;-88
2023/12/24 01:32:45;;;;;;;;;1.00;1.00;;;;;11.80;69.73;101108.63;4994265;28;45333;-83
2023/12/24 01:35:11;;;;;;;;;1.00;1.00;;;;;11.81;69.48;101099.69;4993289;28;54259;-83
2023/12/24 01:37:36;;;;;;;;;1.00;1.00;;;;;11.80;69.60;101095.31;4994242;28;45583;-85
2023/12/24 01:40:02;;;;;;;;;2.00;1.00;;;;;11.82;69.75;101089.91;4992798;28;65585;-86
2023/12/24 01:42:27;;;;;;;;;0.00;0.00;;;;;11.74;69.69;101082.31;4992218;28;45431;-86
2023/12/24 01:44:52;;;;;;;;;0.00;0.00;;;;;11.80;69.65;101097.13;4993180;28;54833;-88
2023/12/24 01:47:18;;;;;;;;;2.00;2.00;;;;;11.77;69.84;101086.59;4993862;28;45358;-86
2023/12/24 01:49:45;;;;;;;;;0.00;0.00;;;;;11.80;69.85;101105.13;4993737;28;45584;-85
2023/12/24 01:52:12;;;;;;;;;1.67;1.00;;;;;11.80;69.62;101099.78;4993716;28;45224;-86
2023/12/24 01:54:37;;;;;;;;;0.33;0.33;;;;;11.80;69.76;101097.13;5008757;27;45307;-83
2023/12/24 01:57:03;;;;;;;;;1.00;1.00;;;;;11.69;69.40;101084.31;4994222;28;45310;-84
2023/12/24 01:59:30;;;;;;;;;1.00;1.00;;;;;11.76;69.22;101090.22;4994440;28;46375;-83
2023/12/24 02:01:55;;;;;;;;;1.00;1.00;;;;;11.72;69.54;101078.00;4997072;28;45507;-82
2023/12/24 02:04:21;;;;;;;;;2.00;0.67;;;;;11.72;69.37;101078.88;5000434;28;44825;-81
2023/12/24 02:06:47;;;;;;;;;0.00;0.00;;;;;11.72;69.31;101070.00;5001475;28;45369;-81
2023/12/24 02:09:12;;;;;;;;;2.00;0.00;;;;;11.72;69.38;101072.69;5002661;28;46342;-83
2023/12/24 02:11:37;;;;;;;;;1.00;1.00;;;;;11.72;69.40;101072.69;5001026;27;45401;-81
2023/12/24 02:14:02;;;;;;;;;0.00;0.00;;;;;11.67;69.32;101059.56;4999919;27;54779;-82
2023/12/24 02:16:33;;;;;;;;;0.00;0.00;;;;;11.72;69.41;101065.53;5000339;28;45662;-86
2023/12/24 02:18:58;;;;;;;;;0.00;0.00;;;;;11.69;69.34;101055.03;4996662;28;45184;-86
2023/12/24 02:21:24;;;;;;;;;0.00;0.00;;;;;11.70;69.59;101056.75;4996603;28;45378;-86
2023/12/24 02:23:49;;;;;;;;;1.00;1.00;;;;;11.60;69.47;101026.22;4996039;28;54890;-86
2023/12/24 02:26:26;;;;;;;;;0.00;0.00;;;;;11.63;69.94;101036.72;4995791;28;49232;-85
2023/12/24 02:28:56;;;;;;;;;1.00;1.00;;;;;11.69;69.50;101060.34;4995873;28;46650;-84
2023/12/24 02:31:26;;;;;;;;;1.00;1.00;;;;;11.70;69.55;101059.41;4995465;27;45238;-83
2023/12/24 02:33:54;;;;;;;;;2.00;0.00;;;;;11.57;69.70;101058.34;4995759;27;45504;-84
2023/12/24 02:36:20;;;;;;;;;0.33;0.00;;;;;11.55;69.82;101065.53;4996118;28;45477;-86
2023/12/24 02:38:45;;;;;;;;;0.00;0.00;;;;;11.62;69.80;101072.28;4995585;28;46052;-82
2023/12/24 02:41:10;;;;;;;;;0.00;0.00;;;;;11.69;69.77;101079.00;4994872;28;64417;-81
2023/12/24 02:43:36;;;;;;;;;1.00;1.00;;;;;11.68;69.63;101085.28;4995436;28;49805;-83
2023/12/24 02:46:01;;;;;;;;;0.33;0.33;;;;;11.66;70.09;101079.16;4994620;28;45224;-85
2023/12/24 02:48:27;;;;;;;;;0.67;0.67;;;;;11.66;70.02;101063.19;4995469;28;45300;-84
2023/12/24 02:50:52;;;;;;;;;1.00;1.00;;;;;11.68;69.80;101063.09;4995215;28;45423;-83
2023/12/24 02:53:18;;;;;;;;;1.00;1.00;;;;;11.65;69.89;101066.78;4995069;28;53255;-85
2023/12/24 02:55:43;;;;;;;;;1.00;1.00;;;;;11.62;70.16;101050.97;4994989;28;54701;-84
2023/12/24 02:58:08;;;;;;;;;1.33;1.33;;;;;11.65;70.03;101047.28;4995331;28;45354;-82
2023/12/24 03:00:33;;;;;;;;;2.33;1.00;;;;;11.58;70.24;101048.53;4995612;28;45404;-85
2023/12/24 03:03:00;;;;;;;;;0.00;0.00;;;;;11.63;70.46;101043.84;4995111;27;54005;-87
2023/12/24 03:05:25;;;;;;;;;0.00;0.00;;;;;11.60;70.69;101039.53;4994749;27;45453;-85
2023/12/24 03:07:51;;;;;;;;;1.00;1.00;;;;;11.55;70.50;101033.59;4996793;28;45431;-84
2023/12/24 03:10:16;;;;;;;;;1.00;1.00;;;;;11.60;70.39;101044.88;5016385;28;45378;-83
2023/12/24 03:12:41;;;;;;;;;1.00;1.00;;;;;11.61;70.35;101045.72;4999459;28;53105;-83
2023/12/24 03:15:07;;;;;;;;;1.00;1.00;;;;;11.59;71.14;101044.94;4996591;27;45347;-86
2023/12/24 03:17:33;;;;;;;;;1.00;1.00;;;;;11.62;70.98;101045.66;4994596;27;46175;-83
2023/12/24 03:19:58;;;;;;;;;0.00;0.00;;;;;11.59;70.88;101035.16;4994232;28;62854;-86
2023/12/24 03:22:24;;;;;;;;;1.00;1.00;;;;;11.63;71.02;101044.69;4995883;28;45377;-88
2023/12/24 03:24:49;;;;;;;;;0.00;0.00;;;;;11.56;70.67;101019.31;4995811;27;45631;-87
2023/12/24 03:27:14;;;;;;;;;1.00;1.00;;;;;11.58;71.04;101013.91;4994631;27;45425;-86
2023/12/24 03:29:40;;;;;;;;;1.00;1.00;;;;;11.64;70.86;101014.44;4995510;28;45417;-83
2023/12/24 03:32:06;;;;;;;;;1.33;0.00;;;;;11.62;70.99;101019.00;4995714;27;45401;-85
2023/12/24 03:34:31;;;;;;;;;0.67;0.67;;;;;11.59;71.15;101007.63;4995674;28;45591;-85
2023/12/24 03:36:56;;;;;;;;;0.00;0.00;;;;;11.62;71.33;101002.16;4996531;27;45369;-89
2023/12/24 03:39:21;;;;;;;;;0.00;0.00;;;;;11.57;71.23;100999.72;4996867;28;52812;-83
2023/12/24 03:41:47;;;;;;;;;1.67;0.00;;;;;11.58;71.58;101017.44;4995153;28;51873;-88
2023/12/24 03:44:12;;;;;;;;;0.67;0.00;;;;;11.60;71.74;101009.38;4995099;28;47732;-86
2023/12/24 03:46:37;;;;;;;;;0.00;0.00;;;;;11.55;71.58;100998.94;4996228;28;45228;-87
2023/12/24 03:49:03;;;;;;;;;0.33;0.33;;;;;11.55;71.93;101004.28;4996221;27;45253;-87
2023/12/24 03:51:28;;;;;;;;;1.33;0.00;;;;;11.47;71.76;100994.06;4995488;28;57049;-88
2023/12/24 03:53:53;;;;;;;;;1.00;1.00;;;;;11.55;71.49;101011.41;4995386;27;45333;-84
2023/12/24 03:56:19;;;;;;;;;1.00;0.00;;;;;11.49;71.81;100997.50;4994965;28;45905;-83
2023/12/24 03:58:46;;;;;;;;;1.00;1.00;;;;;11.50;71.81;100999.22;4995266;28;45280;-89
2023/12/24 04:01:12;;;;;;;;;2.00;1.00;;;;;11.48;71.69;100989.59;4994833;27;45441;-81
2023/12/24 04:03:37;;;;;;;;;2.00;0.00;;;;;11.49;71.96;100997.50;4995386;28;45317;-86
2023/12/24 04:06:14;;;;;;;;;0.00;0.00;;;;;11.42;71.89;100987.22;4996501;27;45881;-84
2023/12/24 04:08:39;;;;;;;;;2.00;0.00;;;;;11.48;72.12;100997.56;4996967;28;45279;-86
2023/12/24 04:11:14;;;;;;;;;1.00;1.00;;;;;11.48;71.80;100998.44;4994885;28;45303;-80
2023/12/24 04:13:39;;;;;;;;;1.00;1.00;;;;;11.48;71.37;100978.94;4995154;27;45439;-82
2023/12/24 04:16:06;;;;;;;;;0.33;0.33;;;;;11.43;72.00;100976.50;4994458;28;45592;-81
2023/12/24 04:18:31;;;;;;;;;2.33;0.00;;;;;11.43;71.65;100975.63;4994547;28;45305;-81
2023/12/24 04:20:56;;;;;;;;;1.00;1.00;;;;;11.42;71.29;100968.59;4994142;27;52610;-82
2023/12/24 04:23:22;;;;;;;;;0.67;0.67;;;;;11.32;71.37;100952.25;4994159;27;46871;-83
2023/12/24 04:25:47;;;;;;;;;0.00;0.00;;;;;11.35;71.21;100951.25;4993480;28;57267;-82
2023/12/24 04:28:12;;;;;;;;;2.00;1.00;;;;;11.26;71.63;100927.75;4994160;28;45432;-82
2023/12/24 04:30:38;;;;;;;;;2.67;0.67;;;;;11.26;71.23;100938.41;4993831;28;45475;-83
2023/12/24 04:33:03;;;;;;;;;1.00;1.00;;;;;11.25;71.41;100934.03;4993949;28;51747;-84
2023/12/24 04:35:29;;;;;;;;;3.00;1.00;;;;;11.19;71.66;100920.09;4994080;28;45333;-81
2023/12/24 04:37:54;;;;;;;;;1.00;0.67;;;;;11.16;71.47;100922.91;5009339;27;45367;-83
2023/12/24 04:40:19;;;;;;;;;1.00;0.00;;;;;11.16;71.85;100930.91;4993053;27;45347;-84
2023/12/24 04:42:45;;;;;;;;;2.67;0.00;;;;;11.09;72.26;100928.66;4993926;28;50298;-82
2023/12/24 04:45:10;;;;;;;;;2.00;0.67;;;;;11.00;72.48;100929.13;4994236;28;46097;-85
2023/12/24 04:47:35;;;;;;;;;1.00;0.00;;;;;10.99;72.30;100932.75;4994391;28;45221;-85
2023/12/24 04:50:00;;;;;;;;;2.00;0.00;;;;;10.91;72.70;100931.31;4994431;28;45556;-86
2023/12/24 04:52:26;;;;;;;;;1.00;1.00;;;;;10.88;73.09;100935.94;4994679;28;45530;-82
2023/12/24 04:54:51;;;;;;;;;2.00;1.67;;;;;10.79;73.02;100925.78;5009144;27;45913;-84
2023/12/24 04:57:17;;;;;;;;;0.67;0.67;;;;;10.80;73.22;100930.16;4994017;28;45371;-84
2023/12/24 04:59:42;;;;;;;;;3.00;1.00;;;;;10.85;73.42;100934.31;4994380;28;45393;-84
2023/12/24 05:02:07;;;;;;;;;4.00;1.00;;;;;10.80;73.73;100925.69;4993694;28;46425;-83
2023/12/24 05:04:34;;;;;;;;;1.00;1.00;;;;;10.76;73.86;100931.25;4992957;28;64611;-84
2023/12/24 05:07:00;;;;;;;;;1.67;1.00;;;;;10.74;73.68;100941.13;4994160;28;45367;-85
2023/12/24 05:09:26;;;;;;;;;0.00;0.00;;;;;10.74;73.98;100938.47;4994617;28;45320;-82
2023/12/24 05:11:51;;;;;;;;;3.00;2.00;;;;;10.75;74.01;100945.50;4995104;28;45600;-84
2023/12/24 05:14:16;;;;;;;;;1.00;1.00;;;;;10.77;73.68;100954.25;4995077;28;45243;-80
2023/12/24 05:16:41;;;;;;;;;2.00;1.00;;;;;10.61;73.76;100933.78;4996584;28;68496;-85
2023/12/24 05:19:07;;;;;;;;;8.00;0.67;;;;;10.77;73.46;100964.91;4996144;28;45323;-85
2023/12/24 05:21:33;;;;;;;;;1.33;1.33;;;;;10.74;73.56;100959.75;4998604;28;45579;-84
2023/12/24 05:23:58;;;;;;;;;2.00;1.00;;;;;10.83;73.83;100968.13;4996176;28;46300;-85
2023/12/24 05:26:26;;;;;;;;;6.67;0.67;;;;;10.88;73.73;100962.56;4993841;28;52916;-85
2023/12/24 05:28:52;;;;;;;;;1.33;1.33;;;;;10.85;73.71;100954.75;4994677;28;45844;-89
2023/12/24 05:31:18;;;;;;;;;2.67;1.00;;;;;10.89;73.58;100949.19;4995097;27;45395;-86
2023/12/24 05:33:43;;;;;;;;;2.00;0.00;;;;;10.82;73.38;100928.31;4998650;28;45418;-87
2023/12/24 05:36:12;;;;;;;;;2.00;2.00;;;;;10.88;72.91;100926.16;4994634;28;64107;-86
2023/12/24 05:38:38;;;;;;;;;2.00;1.00;;;;;10.92;73.15;100941.03;4994169;28;45315;-88
2023/12/24 05:41:03;;;;;;;;;0.00;0.00;;;;;10.93;73.28;100915.28;4994577;28;48736;-87
2023/12/24 05:43:28;;;;;;;;;4.33;2.00;;;;;10.92;73.21;100911.75;4998056;27;49638;-87
2023/12/24 05:45:53;;;;;;;;;3.00;1.00;;;;;10.87;72.94;100889.00;4997026;28;64740;-86
2023/12/24 05:48:19;;;;;;;;;2.00;2.00;;;;;10.90;72.99;100900.34;4997518;28;45382;-88
2023/12/24 05:50:44;;;;;;;;;3.67;1.00;;;;;10.89;73.39;100889.78;5000025;28;55318;-84
2023/12/24 05:53:09;;;;;;;;;2.00;1.67;;;;;10.88;73.02;100893.38;4998814;28;45181;-84
2023/12/24 05:55:35;;;;;;;;;1.00;1.00;;;;;10.90;72.68;100892.34;4999518;28;45360;-85
2023/12/24 05:58:00;;;;;;;;;0.67;0.67;;;;;10.93;73.53;100888.66;4996666;28;64919;-83
2023/12/24 06:00:25;;;;;;;;;1.33;1.33;;;;;10.95;73.05;100893.94;4998614;28;50182;-82
2023/12/24 06:02:51;;;;;;;;;1.00;1.00;;;;;10.88;73.44;100874.75;4999103;28;57515;-83
2023/12/24 06:05:16;;;;;;;;;2.00;2.00;;;;;10.97;73.16;100884.91;5003835;28;45321;-83
2023/12/24 06:07:42;;;;;;;;;1.00;1.00;;;;;10.95;73.75;100876.16;5002636;28;45392;-83
2023/12/24 06:10:07;;;;;;;;;1.00;1.00;;;;;10.94;73.78;100871.78;4998988;28;45358;-82
2023/12/24 06:12:34;;;;;;;;;2.00;2.00;;;;;10.96;73.68;100875.22;4997788;28;45327;-82
2023/12/24 06:15:01;;;;;;;;;1.00;1.00;;;;;10.96;73.45;100867.25;4996416;28;45415;-82
2023/12/24 06:17:26;;;;;;;;;1.67;1.33;;;;;10.97;73.63;100870.75;4996095;28;45406;-87
2023/12/24 06:19:52;;;;;;;;;3.00;1.33;;;;;11.08;73.26;100879.03;4995494;27;53972;-84
2023/12/24 06:22:17;;;;;;;;;2.67;1.00;;;;;10.92;72.98;100857.69;4996442;27;45270;-85
2023/12/24 06:24:43;;;;;;;;;4.67;2.33;;;;;11.07;73.55;100886.16;4995853;28;45260;-83
2023/12/24 06:27:09;;;;;;;;;2.00;1.00;;;;;11.08;73.41;100903.84;4995991;27;45176;-82
2023/12/24 06:29:37;;;;;;;;;3.00;1.67;;;;;11.13;73.75;100888.47;5012045;27;45484;-83
2023/12/24 06:32:03;;;;;;;;;2.67;2.00;;;;;11.09;72.95;100870.97;4996902;27;45444;-84
2023/12/24 06:34:28;;;;;;;;;1.67;1.67;;;;;11.14;73.22;100882.22;4998763;27;45344;-82
2023/12/24 06:36:54;;;;;;;;;1.00;1.00;;;;;11.12;73.46;100881.44;5002597;28;45429;-84
2023/12/24 06:39:19;;;;;;;;;2.00;2.00;;;;;11.11;72.87;100868.22;4998383;28;45271;-84
2023/12/24 06:41:45;;;;;;;;;2.00;2.00;;;;;11.06;73.22;100855.13;4995720;28;61378;-81
2023/12/24 06:44:11;;;;;;;;;3.00;1.00;;;;;11.15;73.00;100877.75;4996534;27;45882;-85
2023/12/24 06:46:36;;;;;;;;;3.33;1.00;;;;;11.05;73.08;100863.19;4996336;27;45405;-87
2023/12/24 06:49:01;;;;;;;;;6.33;1.33;;;;;11.07;73.29;100878.19;4996436;28;51069;-83
2023/12/24 06:51:27;;;;;;;;;3.67;2.00;;;;;11.07;73.66;100877.31;4996760;28;50470;-85
2023/12/24 06:53:52;;;;;;;;;3.00;1.00;;;;;11.07;73.49;100877.31;4996168;28;45176;-84
2023/12/24 06:56:17;;;;;;;;;3.67;1.00;;;;;11.05;73.92;100868.53;4996839;28;47667;-88
2023/12/24 06:58:43;;;;;;;;;1.67;1.67;;;;;10.99;73.70;100864.41;4995266;28;57510;-88
2023/12/24 07:01:08;;;;;;;;;1.67;1.67;;;;;11.00;73.68;100873.25;4995556;27;49642;-85
2023/12/24 07:03:33;;;;;;;;;1.00;1.00;;;;;11.00;74.06;100867.94;4995969;27;45322;-84
2023/12/24 07:05:58;;;;;;;;;1.00;1.00;;;;;11.04;73.43;100883.63;4995884;27;45269;-83
2023/12/24 07:08:24;;;;;;;;;3.67;2.00;;;;;11.09;73.97;100884.28;5008689;27;51761;-84
2023/12/24 07:10:49;;;;;;;;;0.67;0.67;;;;;11.14;73.84;100884.88;5004065;28;61990;-84
2023/12/24 07:13:14;;;;;;;;;3.00;2.00;;;;;11.12;73.77;100876.13;4996120;27;58129;-83
2023/12/24 07:15:42;;;;;;;;;5.00;1.67;;;;;11.19;73.53;100893.47;4995728;28;45316;-83
2023/12/24 07:18:08;;;;;;;;;2.67;1.67;;;;;11.17;73.30;100886.50;4994499;28;45332;-83
2023/12/24 07:20:33;;;;;;;;;3.67;1.67;;;;;11.21;73.36;100891.59;4995124;28;45331;-82
2023/12/24 07:22:58;;;;;;;;;3.00;3.00;;;;;11.22;73.66;100882.66;4994509;28;57902;-83
2023/12/24 07:25:24;;;;;;;;;1.00;1.00;;;;;11.24;73.39;100885.25;4995343;27;45655;-82
2023/12/24 07:27:49;;;;;;;;;5.00;2.00;;;;;11.26;73.69;100890.47;4995897;28;45341;-83
2023/12/24 07:30:15;;;;;;;;;2.00;2.00;;;;;11.15;73.65;100875.09;4995737;28;46074;-84
2023/12/24 07:32:44;;;;;;;;;5.67;1.00;;;;;11.22;74.05;100881.81;4994309;28;45320;-84
2023/12/24 07:35:10;;;;;;;;;3.00;1.33;;;;;11.26;73.73;100888.69;4995605;27;45444;-85
2023/12/24 07:37:35;;;;;;;;;4.00;2.00;;;;;11.14;74.44;100862.72;4995177;27;45570;-86
2023/12/24 07:40:00;;;;;;;;;2.00;2.00;;;;;11.22;73.96;100872.03;4995139;28;46495;-85
2023/12/24 07:42:25;;;;;;;;;1.00;1.00;;;;;11.31;73.79;100880.44;4995874;28;45237;-84
2023/12/24 07:44:51;;;;;;;;;2.33;1.00;;;;;11.34;74.25;100891.81;4994561;28;62958;-82
2023/12/24 07:47:16;;;;;;;;;1.00;1.00;;;;;11.30;74.41;100868.91;4996593;28;45491;-83
2023/12/24 07:49:42;;;;;;;;;2.00;2.00;;;;;11.24;74.38;100853.31;4996083;28;45724;-88
2023/12/24 07:52:08;;;;;;;;;2.33;2.00;;;;;11.31;74.65;100875.09;4996105;28;45352;-82
2023/12/24 07:54:33;;;;;;;;;2.00;0.67;;;;;11.29;74.25;100858.34;4995702;28;45310;-81
2023/12/24 07:56:59;;;;;;;;;2.00;1.00;;;;;11.31;74.58;100881.28;4995202;28;45377;-85
2023/12/24 07:59:24;;;;;;;;;3.67;1.67;;;;;11.32;74.53;100892.81;4995715;28;51291;-84
2023/12/24 08:01:49;;;;;;;;;1.67;1.33;;;;;11.35;75.10;100887.34;4995208;28;45467;-85
2023/12/24 08:04:15;;;;;;;;;2.00;1.00;;;;;11.36;74.90;100889.06;4994142;28;45402;-82
2023/12/24 08:06:40;;;;;;;;;1.00;1.00;;;;;11.27;74.90;100879.75;4996552;28;45436;-83
2023/12/24 08:09:07;;;;;;;;;2.00;1.00;;;;;11.25;75.26;100872.78;4996758;27;45555;-82
2023/12/24 08:11:33;;;;;;;;;3.67;1.00;;;;;11.34;75.31;100896.25;4995847;27;45285;-82
2023/12/24 08:13:58;;;;;;;;;3.00;2.00;;;;;11.36;75.74;100899.69;4995371;27;45234;-82
2023/12/24 08:16:23;;;;;;;;;3.00;1.00;;;;;11.39;74.97;100894.19;4995130;27;45587;-83
2023/12/24 08:18:49;;;;;;;;;2.00;1.00;;;;;11.37;75.39;100896.09;4995135;28;45546;-81
2023/12/24 08:21:14;;;;;;;;;2.00;2.00;;;;;11.37;75.04;100896.94;4994715;28;45329;-81
2023/12/24 08:23:39;;;;;;;;;2.00;1.00;;;;;11.41;74.76;100901.16;4995098;28;45233;-82
2023/12/24 08:26:05;;;;;;;;;6.00;0.33;;;;;11.41;74.98;100913.63;4994751;28;45233;-84
2023/12/24 08:28:31;;;;;;;;;1.33;1.33;;;;;11.41;74.78;100913.63;4996228;28;45219;-83
2023/12/24 08:30:56;;;;;;;;;2.00;2.00;;;;;11.40;74.89;100898.59;4993736;28;45256;-84
2023/12/24 08:33:21;;;;;;;;;3.33;2.33;;;;;11.42;74.36;100910.00;4996411;28;45360;-84
2023/12/24 08:35:47;;;;;;;;;2.67;1.00;;;;;11.45;74.14;100907.16;4994074;28;56427;-84
2023/12/24 08:38:12;;;;;;;;;3.67;2.00;;;;;11.48;74.21;100915.00;4994815;28;58100;-85
2023/12/24 08:40:37;;;;;;;;;3.00;1.00;;;;;11.47;73.69;100905.31;4994752;28;45368;-86
2023/12/24 08:43:03;;;;;;;;;2.00;0.00;;;;;11.43;73.78;100898.41;4995927;28;45418;-85
2023/12/24 08:45:28;;;;;;;;;6.00;2.00;;;;;11.52;73.51;100919.22;4996987;28;45318;-82
2023/12/24 08:47:54;;;;;;;;;1.00;1.00;;;;;11.44;73.39;100884.16;4996207;28;46469;-82
2023/12/24 08:50:21;;;;;;;;;2.00;0.67;;;;;11.54;73.20;100917.31;4997773;28;61290;-82
2023/12/24 08:52:46;;;;;;;;;1.33;1.00;;;;;11.61;73.11;100909.88;5013171;28;45382;-83
2023/12/24 08:55:11;;;;;;;;;1.00;1.00;;;;;11.56;72.64;100904.78;4999010;27;45480;-81
2023/12/24 08:57:36;;;;;;;;;1.67;1.67;;;;;11.61;73.05;100908.06;5005905;28;46195;-82
2023/12/24 09:00:03;;;;;;;;;3.67;2.33;;;;;11.65;72.65;100906.09;5003998;28;45340;-81
2023/12/24 09:02:29;;;;;;;;;2.67;1.67;;;;;11.63;72.33;100892.84;5003151;27;45406;-86
2023/12/24 09:04:57;;;;;;;;;2.67;2.33;;;;;11.72;72.37;100895.00;4998512;27;45417;-83
2023/12/24 09:07:22;;;;;;;;;4.33;2.00;;;;;11.70;72.51;100898.69;4995856;27;48380;-86
2023/12/24 09:09:48;;;;;;;;;1.67;1.67;;;;;11.72;72.14;100900.34;4997424;28;45322;-83
2023/12/24 09:12:15;;;;;;;;;2.00;1.67;;;;;11.73;71.92;100910.06;4993864;27;45326;-84
2023/12/24 09:14:40;;;;;;;;;4.33;2.00;;;;;11.87;71.93;100916.44;4994698;27;45420;-85
2023/12/24 09:17:05;;;;;;;;;3.00;2.00;;;;;11.96;71.83;100913.25;4996673;28;46325;-82
2023/12/24 09:19:31;;;;;;;;;3.00;1.33;;;;;12.01;71.50;100913.84;4997517;27;59853;-84
2023/12/24 09:21:56;;;;;;;;;3.00;1.67;;;;;11.97;71.30;100891.81;4998101;28;47224;-82
2023/12/24 09:24:21;;;;;;;;;1.00;1.00;;;;;12.08;70.97;100904.53;4997905;27;45334;-83
2023/12/24 09:26:47;;;;;;;;;3.33;2.00;;;;;12.11;70.82;100915.06;4995889;28;62698;-84
2023/12/24 09:29:12;;;;;;;;;2.00;2.00;;;;;12.09;70.73;100903.59;4996922;28;45353;-84
2023/12/24 09:31:39;;;;;;;;;2.00;2.00;;;;;12.03;71.15;100893.31;4997120;27;45321;-84
2023/12/24 09:34:06;;;;;;;;;0.67;0.67;;;;;12.19;70.82;100911.94;4997450;27;45401;-82
2023/12/24 09:36:31;;;;;;;;;3.67;1.00;;;;;12.12;70.47;100890.13;4998101;28;46531;-83
2023/12/24 09:38:56;;;;;;;;;3.00;2.00;;;;;12.24;70.53;100915.19;4997771;28;45211;-80
2023/12/24 09:41:22;;;;;;;;;4.00;1.00;;;;;12.28;70.46;100908.75;4997014;28;45389;-83
2023/12/24 09:43:47;;;;;;;;;2.33;1.33;;;;;12.27;70.34;100888.38;4997750;28;45480;-83
2023/12/24 09:46:13;;;;;;;;;1.00;1.00;;;;;12.36;70.25;100899.34;4997931;28;45904;-83
2023/12/24 09:48:38;;;;;;;;;1.33;0.33;;;;;12.36;70.11;100907.31;4999941;27;45265;-81
2023/12/24 09:51:06;;;;;;;;;3.33;2.00;;;;;12.39;70.32;100901.84;5003136;28;45242;-81
2023/12/24 09:53:31;;;;;;;;;1.67;1.67;;;;;12.43;69.97;100915.00;5002797;27;45554;-83
2023/12/24 09:55:59;;;;;;;;;7.00;2.00;;;;;12.33;70.16;100898.66;5000480;28;47349;-82
2023/12/24 09:58:24;;;;;;;;;1.33;1.33;;;;;12.31;70.08;100889.91;4999637;28;45249;-85
2023/12/24 10:00:49;;;;;;;;;2.00;2.00;;;;;12.33;70.13;100898.66;4997282;28;45664;-85
2023/12/24 10:03:15;;;;;;;;;2.00;2.00;;;;;12.34;70.19;100906.56;4996838;28;45330;-82
2023/12/24 10:06:03;;;;;;;;;1.00;1.00;;;;;12.25;70.38;100885.78;4995748;28;66471;-84
2023/12/24 10:08:30;;;;;;;;;1.00;1.00;;;;;12.32;70.17;100910.28;4995693;28;45466;-84
2023/12/24 10:10:56;;;;;;;;;5.00;2.00;;;;;12.38;70.45;100902.78;5013820;27;45338;-84
2023/12/24 10:13:21;;;;;;;;;3.00;1.67;;;;;12.44;70.05;100916.72;5014515;27;45366;-84
2023/12/24 10:16:00;;;;;;;;;4.67;2.00;;;;;12.47;70.19;100911.19;4996420;28;46141;-82
2023/12/24 10:18:25;;;;;;;;;3.00;2.00;;;;;12.44;69.79;100896.22;4995932;28;45345;-84
2023/12/24 10:21:08;;;;;;;;;3.00;1.00;;;;;12.43;70.40;100894.50;4996191;28;45417;-86
2023/12/24 10:23:33;;;;;;;;;3.00;3.00;;;;;12.60;70.40;100905.03;4997931;28;45268;-87
2023/12/24 10:26:04;;;;;;;;;3.67;2.00;;;;;12.64;69.81;100895.06;4994965;28;48226;-86
2023/12/24 10:28:30;;;;;;;;;3.00;3.00;;;;;12.75;69.56;100889.91;4996990;28;45416;-86
2023/12/24 10:31:08;;;;;;;;;3.00;3.00;;;;;12.77;69.14;100890.69;4997119;28;45344;-85
2023/12/24 10:33:37;;;;;;;;;2.00;1.00;;;;;12.74;69.44;100877.53;5000157;28;45313;-88
2023/12/24 10:36:04;;;;;;;;;4.00;1.33;;;;;12.83;69.33;100892.13;4997705;27;45291;-86
2023/12/24 10:38:29;;;;;;;;;4.00;2.00;;;;;12.86;69.08;100884.78;4997377;27;45256;-82
2023/12/24 10:40:55;;;;;;;;;2.33;1.33;;;;;12.92;68.94;100889.78;4997174;27;45408;-87
2023/12/24 10:43:20;;;;;;;;;1.00;1.00;;;;;12.98;68.50;100884.03;4997863;28;45426;-83
2023/12/24 10:45:45;;;;;;;;;4.00;2.00;;;;;13.15;68.71;100890.13;5002237;28;53799;-85
2023/12/24 10:48:12;;;;;;;;;3.67;2.00;;;;;13.19;68.21;100873.03;5013886;28;58443;-84
2023/12/24 10:50:38;;;;;;;;;2.00;2.00;;;;;13.30;68.33;100886.56;4999392;27;45196;-84
2023/12/24 10:53:03;;;;;;;;;4.00;2.00;;;;;13.32;67.44;100879.31;4996884;27;45242;-82
2023/12/24 10:55:33;;;;;;;;;2.00;2.00;;;;;13.21;67.88;100860.44;4995744;28;46056;-82
2023/12/24 10:58:08;;;;;;;;;2.00;2.00;;;;;13.23;68.65;100890.56;4996025;28;45313;-86
2023/12/24 11:00:33;;;;;;;;;1.00;1.00;;;;;13.10;68.35;100873.56;4996674;28;45369;-85
2023/12/24 11:02:59;;;;;;;;;2.67;2.67;;;;;13.11;68.67;100886.81;4995318;28;45505;-81
2023/12/24 11:05:39;;;;;;;;;2.67;2.67;;;;;13.11;68.65;100881.47;4997845;27;48783;-84
2023/12/24 11:08:05;;;;;;;;;1.00;1.00;;;;;12.93;68.79;100851.44;4999101;27;45295;-85
2023/12/24 11:10:41;;;;;;;;;3.00;1.67;;;;;13.08;69.02;100864.78;4997307;28;45244;-83
2023/12/24 11:13:32;;;;;;;;;4.67;2.00;;;;;13.07;69.08;100863.94;4997141;28;45504;-85
2023/12/24 11:16:09;;;;;;;;;4.33;2.00;;;;;13.09;69.29;100855.81;5003453;28;45192;-82
2023/12/24 11:18:48;;;;;;;;;2.33;2.33;;;;;13.12;69.06;100868.97;4996249;28;45274;-83